createdAt,value
2018-11-21T00:00:08.968Z,83.5
2018-11-21T00:01:18.146Z,82.9
2018-11-21T00:02:27.413Z,83.1
2018-11-21T00:03:36.672Z,83.4
2018-11-21T00:04:45.778Z,83.1
2018-11-21T00:05:54.970Z,82.7
2018-11-21T00:07:04.192Z,83.1
2018-11-21T00:08:13.426Z,83.2
2018-11-21T00:09:22.629Z,83.1
2018-11-21T00:10:31.804Z,83.6
2018-11-21T00:11:41.057Z,83.2
2018-11-21T00:12:50.311Z,82.9
2018-11-21T00:13:59.423Z,83.5
2018-11-21T00:15:08.605Z,82.7
2018-11-21T00:16:18.145Z,83.2
2018-11-21T00:17:27.013Z,83.2
2018-11-21T00:18:36.217Z,83
2018-11-21T00:19:45.415Z,83
2018-11-21T00:20:54.653Z,83.2
2018-11-21T00:22:03.839Z,82.9
2018-11-21T00:23:13.040Z,82.5
2018-11-21T00:24:22.320Z,82.2
2018-11-21T00:25:31.440Z,82.7
2018-11-21T00:26:40.654Z,82.8
2018-11-21T00:27:49.887Z,83.4
2018-11-21T00:28:59.072Z,82.9
2018-11-21T00:30:08.538Z,82.5
2018-11-21T00:31:17.465Z,82.3
2018-11-21T00:32:26.680Z,82
2018-11-21T00:33:35.884Z,82.6
2018-11-21T00:34:45.074Z,82.2
2018-11-21T00:35:54.284Z,82.7
2018-11-21T00:37:03.503Z,82.6
2018-11-21T00:38:12.704Z,82.2
2018-11-21T00:39:21.900Z,82.6
2018-11-21T00:40:31.092Z,82.7
2018-11-21T00:41:40.300Z,82.6
2018-11-21T00:42:49.498Z,82.5
2018-11-21T00:43:58.715Z,82.4
2018-11-21T00:45:07.902Z,82.2
2018-11-21T00:46:17.146Z,82.5
2018-11-21T00:47:26.293Z,82.6
2018-11-21T00:48:35.510Z,82.3
2018-11-21T00:49:44.705Z,81.6
2018-11-21T00:50:53.915Z,82.2
2018-11-21T00:52:03.127Z,81.9
2018-11-21T00:53:12.388Z,81.8
2018-11-21T00:54:21.549Z,82.1
2018-11-21T00:55:30.727Z,80.2
2018-11-21T00:56:40.264Z,81.3
2018-11-21T00:57:49.164Z,80.2
2018-11-21T00:58:58.346Z,81
2018-11-21T01:00:07.534Z,81.7
2018-11-21T01:01:16.740Z,80.2
2018-11-21T01:02:25.954Z,81.3
2018-11-21T01:03:35.158Z,81.2
2018-11-21T01:04:44.436Z,81.1
2018-11-21T01:05:53.547Z,80.2
2018-11-21T01:07:02.759Z,80.8
2018-11-21T01:08:11.934Z,81.1
2018-11-21T01:09:21.214Z,80.6
2018-11-21T01:10:30.375Z,80.1
2018-11-21T01:11:39.586Z,80.1
2018-11-21T01:12:48.866Z,80.1
2018-11-21T01:13:57.966Z,80.1
2018-11-21T01:15:07.171Z,80.1
2018-11-21T01:16:16.380Z,80.1
2018-11-21T01:17:25.567Z,80.1
2018-11-21T01:18:34.806Z,80.1
2018-11-21T01:19:43.969Z,80.1
2018-11-21T01:20:53.170Z,80.1
2018-11-21T01:22:02.367Z,80.2
2018-11-21T01:23:11.601Z,80.2
2018-11-21T01:24:20.794Z,80
2018-11-21T01:25:29.987Z,80.2
2018-11-21T01:26:39.188Z,79.6
2018-11-21T01:27:48.405Z,79.5
2018-11-21T01:28:57.577Z,79.5
2018-11-21T01:30:06.777Z,80
2018-11-21T01:31:15.980Z,79.5
2018-11-21T01:32:25.180Z,79.3
2018-11-21T01:33:34.411Z,79.2
2018-11-21T01:34:43.596Z,80
2018-11-21T01:35:52.776Z,79
2018-11-21T01:37:01.954Z,79.3
2018-11-21T01:38:11.184Z,79.2
2018-11-21T01:39:20.352Z,79.7
2018-11-21T01:40:29.547Z,79
2018-11-21T01:41:38.756Z,79.2
2018-11-21T01:42:47.961Z,79.3
2018-11-21T01:43:57.156Z,79.4
2018-11-21T01:45:06.351Z,78.9
2018-11-21T01:46:15.608Z,78.7
2018-11-21T01:47:24.748Z,79.1
2018-11-21T01:48:33.987Z,79.3
2018-11-21T01:49:43.139Z,79.9
2018-11-21T01:50:52.339Z,79.3
2018-11-21T01:52:01.537Z,79
2018-11-21T01:53:10.747Z,78.8
2018-11-21T01:54:22.185Z,79
2018-11-21T01:55:30.449Z,79.4
2018-11-21T01:56:38.815Z,79.1
2018-11-21T01:57:47.969Z,78.6
2018-11-21T01:58:56.821Z,79
2018-11-21T02:00:06.105Z,79
2018-11-21T02:01:17.542Z,78.7
2018-11-21T02:02:24.870Z,78.2
2018-11-21T02:03:33.526Z,78.7
2018-11-21T02:04:42.740Z,78.7
2018-11-21T02:05:51.927Z,78.6
2018-11-21T02:07:01.111Z,78.9
2018-11-21T02:08:10.306Z,78.9
2018-11-21T02:09:19.522Z,79
2018-11-21T02:10:28.748Z,78.8
2018-11-21T02:11:38.120Z,79.2
2018-11-21T02:12:47.104Z,79
2018-11-21T02:13:56.300Z,79.3
2018-11-21T02:15:05.507Z,79
2018-11-21T02:16:14.688Z,78.9
2018-11-21T02:17:23.890Z,79.1
2018-11-21T02:18:33.095Z,78.5
2018-11-21T02:19:42.484Z,78.6
2018-11-21T02:20:51.491Z,78.8
2018-11-21T02:22:00.695Z,78.7
2018-11-21T02:23:09.891Z,78.7
2018-11-21T02:24:19.089Z,78.5
2018-11-21T02:25:28.272Z,79
2018-11-21T02:26:37.519Z,79.7
2018-11-21T02:27:46.672Z,79
2018-11-21T02:28:55.867Z,78.4
2018-11-21T02:30:05.074Z,78.9
2018-11-21T02:31:14.248Z,79.6
2018-11-21T02:32:23.462Z,80
2018-11-21T02:33:32.680Z,79.3
2018-11-21T02:34:41.894Z,80
2018-11-21T02:35:51.142Z,79
2018-11-21T02:37:00.257Z,79.8
2018-11-21T02:38:09.429Z,79
2018-11-21T02:39:18.624Z,79.9
2018-11-21T02:40:27.912Z,80
2018-11-21T02:41:37.072Z,80
2018-11-21T02:42:46.969Z,79.9
2018-11-21T02:43:56.157Z,79.9
2018-11-21T02:45:04.629Z,79.9
2018-11-21T02:46:13.814Z,79.9
2018-11-21T02:47:23.004Z,79.8
2018-11-21T02:48:32.197Z,79.9
2018-11-21T02:49:41.477Z,80
2018-11-21T02:50:50.581Z,79.9
2018-11-21T02:51:59.803Z,79.9
2018-11-21T02:53:09.017Z,79.9
2018-11-21T02:54:18.176Z,79.9
2018-11-21T02:55:27.416Z,79.9
2018-11-21T02:56:36.555Z,80
2018-11-21T02:57:45.763Z,79.9
2018-11-21T02:58:54.947Z,79.9
2018-11-21T03:00:04.407Z,79.9
2018-11-21T03:01:13.329Z,79.9
2018-11-21T03:02:22.550Z,80.6
2018-11-21T03:03:31.730Z,80.3
2018-11-21T03:04:40.917Z,80.7
2018-11-21T03:05:50.110Z,79.8
2018-11-21T03:06:59.315Z,80.7
2018-11-21T03:08:08.484Z,80.6
2018-11-21T03:09:17.682Z,81
2018-11-21T03:10:26.882Z,80.9
2018-11-21T03:11:36.064Z,80.7
2018-11-21T03:12:45.256Z,80.8
2018-11-21T03:13:54.437Z,81.3
2018-11-21T03:15:03.658Z,81.2
2018-11-21T03:16:12.829Z,81.1
2018-11-21T03:17:22.021Z,80.8
2018-11-21T03:18:31.230Z,80.7
2018-11-21T03:19:40.647Z,81.3
2018-11-21T03:20:49.593Z,81.4
2018-11-21T03:21:58.801Z,80.7
2018-11-21T03:23:07.993Z,81.6
2018-11-21T03:24:17.162Z,80.9
2018-11-21T03:25:26.437Z,80.9
2018-11-21T03:26:35.579Z,81
2018-11-21T03:27:44.825Z,81.5
2018-11-21T03:28:54.026Z,80.5
2018-11-21T03:30:03.137Z,80.8
2018-11-21T03:31:12.426Z,81
2018-11-21T03:32:21.514Z,81
2018-11-21T03:33:30.706Z,80.4
2018-11-21T03:34:39.877Z,80.8
2018-11-21T03:35:49.099Z,80.8
2018-11-21T03:36:58.314Z,80.9
2018-11-21T03:38:07.458Z,81
2018-11-21T03:39:16.656Z,80.6
2018-11-21T03:40:25.853Z,80
2018-11-21T03:41:35.070Z,81.2
2018-11-21T03:42:44.232Z,79.9
2018-11-21T03:43:53.424Z,80.8
2018-11-21T03:45:02.601Z,80.9
2018-11-21T03:46:11.801Z,79.9
2018-11-21T03:47:20.980Z,80.2
2018-11-21T03:48:30.191Z,79.8
2018-11-21T03:49:39.382Z,80.2
2018-11-21T03:51:57.771Z,80.4
2018-11-21T03:53:06.923Z,80.6
2018-11-21T03:54:16.110Z,80.5
2018-11-21T03:55:25.327Z,80.6
2018-11-21T03:56:34.617Z,80.7
2018-11-21T03:57:43.707Z,80.4
2018-11-21T03:58:52.897Z,79.9
2018-11-21T04:00:02.090Z,79.9
2018-11-21T04:01:11.277Z,79.8
2018-11-21T04:02:20.471Z,80.6
2018-11-21T04:03:29.661Z,79.8
2018-11-21T04:04:38.923Z,80.2
2018-11-21T04:05:48.038Z,80
2018-11-21T04:06:57.236Z,80.2
2018-11-21T04:08:06.425Z,80.5
2018-11-21T04:09:15.898Z,79.8
2018-11-21T04:10:24.812Z,80.2
2018-11-21T04:11:33.997Z,80.3
2018-11-21T04:12:43.188Z,81
2018-11-21T04:13:52.378Z,79.8
2018-11-21T04:15:01.595Z,81.2
2018-11-21T04:16:10.764Z,80.5
2018-11-21T04:17:19.952Z,81
2018-11-21T04:18:29.198Z,81.2
2018-11-21T04:19:38.337Z,80.6
2018-11-21T04:20:47.511Z,80.7
2018-11-21T04:21:56.776Z,81.3
2018-11-21T04:23:05.902Z,81.2
2018-11-21T04:24:15.427Z,80.8
2018-11-21T04:25:24.289Z,81.2
2018-11-21T04:26:33.494Z,82
2018-11-21T04:27:42.682Z,81.6
2018-11-21T04:28:51.821Z,81.2
2018-11-21T04:30:01.045Z,81.4
2018-11-21T04:31:10.249Z,81.1
2018-11-21T04:32:19.409Z,81.7
2018-11-21T04:33:28.693Z,82
2018-11-21T04:34:37.808Z,82.3
2018-11-21T04:35:46.988Z,81.7
2018-11-21T04:36:56.176Z,81.9
2018-11-21T04:38:05.364Z,82
2018-11-21T04:39:14.556Z,82
2018-11-21T04:40:23.729Z,81.5
2018-11-21T04:41:32.945Z,82.4
2018-11-21T04:42:42.122Z,82.3
2018-11-21T04:43:51.316Z,82.4
2018-11-21T04:45:00.523Z,82.3
2018-11-21T04:46:09.682Z,82.3
2018-11-21T04:47:18.913Z,82.5
2018-11-21T04:48:28.150Z,82.7
2018-11-21T04:49:37.245Z,82.7
2018-11-21T04:50:46.456Z,82.5
2018-11-21T04:51:55.656Z,82.6
2018-11-21T04:53:04.813Z,82
2018-11-21T04:54:14.015Z,82.9
2018-11-21T04:55:23.193Z,82.9
2018-11-21T04:56:32.435Z,82.5
2018-11-21T04:57:41.567Z,83
2018-11-21T04:58:50.762Z,82.7
2018-11-21T04:59:59.944Z,82.7
2018-11-21T05:01:09.143Z,83.5
2018-11-21T05:02:18.329Z,83.4
2018-11-21T05:03:27.707Z,82.7
2018-11-21T05:04:36.725Z,83.4
2018-11-21T05:05:45.903Z,83.4
2018-11-21T05:06:55.075Z,82.9
2018-11-21T05:08:04.281Z,83.1
2018-11-21T05:09:13.471Z,83.1
2018-11-21T05:10:22.657Z,83.3
2018-11-21T05:11:31.828Z,83.2
2018-11-21T05:12:41.022Z,83
2018-11-21T05:13:50.208Z,83
2018-11-21T05:14:59.397Z,83
2018-11-21T05:16:08.603Z,83.6
2018-11-21T05:17:17.781Z,83.6
2018-11-21T05:18:26.958Z,83.2
2018-11-21T05:19:36.172Z,83.1
2018-11-21T05:20:45.322Z,83.2
2018-11-21T05:21:54.533Z,83.3
2018-11-21T05:23:03.708Z,83.2
2018-11-21T05:24:12.877Z,83.4
2018-11-21T05:25:22.065Z,83.5
2018-11-21T05:26:31.284Z,83.3
2018-11-21T05:27:40.572Z,83.5
2018-11-21T05:28:51.284Z,83.7
2018-11-21T05:29:59.435Z,83.7
2018-11-21T05:31:08.902Z,83.9
2018-11-21T05:32:18.133Z,83.9
2018-11-21T05:33:26.485Z,84
2018-11-21T05:34:35.622Z,83.8
2018-11-21T05:35:44.776Z,83.6
2018-11-21T05:36:53.949Z,83.4
2018-11-21T05:38:03.487Z,84
2018-11-21T05:39:12.440Z,83.7
2018-11-21T05:40:21.513Z,84.2
2018-11-21T05:41:31.108Z,84.2
2018-11-21T05:42:39.881Z,83.9
2018-11-21T05:43:49.166Z,84.2
2018-11-21T05:44:58.310Z,84
2018-11-21T05:46:07.460Z,84
2018-11-21T05:47:16.670Z,83.9
2018-11-21T05:48:25.840Z,84.5
2018-11-21T05:49:35.073Z,84.3
2018-11-21T05:50:44.222Z,83.8
2018-11-21T05:51:53.414Z,84.5
2018-11-21T05:53:02.686Z,84.8
2018-11-21T05:54:11.791Z,84.5
2018-11-21T05:55:20.960Z,84.4
2018-11-21T05:56:30.165Z,84.5
2018-11-21T05:57:39.344Z,84
2018-11-21T05:58:48.534Z,84.7
2018-11-21T05:59:57.755Z,85
2018-11-21T06:01:06.916Z,84.7
2018-11-21T06:02:16.103Z,84.8
2018-11-21T06:03:25.291Z,84.4
2018-11-21T06:04:34.489Z,84.7
2018-11-21T06:05:43.747Z,85
2018-11-21T06:06:52.866Z,85
2018-11-21T06:08:02.062Z,85.5
2018-11-21T06:09:11.231Z,85.4
2018-11-21T06:10:20.410Z,85.3
2018-11-21T06:11:29.619Z,84.6
2018-11-21T06:12:38.802Z,85
2018-11-21T06:13:47.980Z,85.4
2018-11-21T06:14:57.186Z,85.6
2018-11-21T06:16:06.409Z,85.6
2018-11-21T06:17:15.554Z,84.8
2018-11-21T06:18:24.744Z,85.6
2018-11-21T06:19:34.032Z,85.5
2018-11-21T06:20:43.126Z,85.6
2018-11-21T06:21:52.308Z,85.7
2018-11-21T06:23:01.513Z,84.9
2018-11-21T06:24:10.726Z,84.9
2018-11-21T06:25:19.887Z,85.2
2018-11-21T06:26:29.075Z,85.3
2018-11-21T06:27:38.263Z,85.6
2018-11-21T06:28:47.449Z,85.6
2018-11-21T06:29:56.653Z,85.7
2018-11-21T06:31:05.835Z,85
2018-11-21T06:32:15.035Z,85.6
2018-11-21T06:33:24.235Z,85.6
2018-11-21T06:34:33.427Z,85.6
2018-11-21T06:35:42.667Z,85.7
2018-11-21T06:36:51.774Z,85.7
2018-11-21T06:38:00.973Z,85.7
2018-11-21T06:39:10.284Z,85.7
2018-11-21T06:40:19.345Z,85.7
2018-11-21T06:41:28.592Z,85.5
2018-11-21T06:42:37.739Z,85.7
2018-11-21T06:43:46.939Z,85.7
2018-11-21T06:44:56.123Z,85.7
2018-11-21T06:46:05.322Z,85.7
2018-11-21T06:47:14.516Z,85.7
2018-11-21T06:48:23.770Z,85.6
2018-11-21T06:49:32.886Z,86.2
2018-11-21T06:50:42.114Z,86
2018-11-21T06:51:51.276Z,85.6
2018-11-21T06:53:00.556Z,86.4
2018-11-21T06:54:09.670Z,85.8
2018-11-21T06:55:18.892Z,86.4
2018-11-21T06:56:28.254Z,86.7
2018-11-21T06:57:37.267Z,86.4
2018-11-21T06:58:46.443Z,86.6
2018-11-21T06:59:55.641Z,86
2018-11-21T07:01:04.893Z,86
2018-11-21T07:02:14.005Z,86.5
2018-11-21T07:03:23.205Z,86.1
2018-11-21T07:04:32.410Z,87
2018-11-21T07:05:41.579Z,86.8
2018-11-21T07:06:50.787Z,86.3
2018-11-21T07:07:59.980Z,85.6
2018-11-21T07:09:09.148Z,86.6
2018-11-21T07:10:18.403Z,87
2018-11-21T07:11:27.555Z,86.5
2018-11-21T07:12:36.729Z,87.1
2018-11-21T07:13:45.956Z,86.6
2018-11-21T07:14:55.117Z,87.1
2018-11-21T07:16:04.328Z,86.7
2018-11-21T07:17:13.530Z,86.6
2018-11-21T07:18:22.686Z,86.7
2018-11-21T07:19:31.899Z,87
2018-11-21T07:20:41.072Z,87.2
2018-11-21T07:21:50.261Z,86.8
2018-11-21T07:22:59.548Z,87.5
2018-11-21T07:24:08.762Z,87.3
2018-11-21T07:25:17.877Z,87.2
2018-11-21T07:26:27.037Z,87.2
2018-11-21T07:27:36.240Z,87.6
2018-11-21T07:28:45.424Z,86.9
2018-11-21T07:29:54.618Z,88
2018-11-21T07:31:03.795Z,87.8
2018-11-21T07:32:12.986Z,87.8
2018-11-21T07:33:22.201Z,88.6
2018-11-21T07:34:31.423Z,89
2018-11-21T07:35:40.579Z,88.8
2018-11-21T07:36:49.765Z,89.6
2018-11-21T07:37:58.985Z,89.1
2018-11-21T07:39:08.172Z,88.7
2018-11-21T07:40:17.341Z,88.8
2018-11-21T07:41:26.523Z,88.5
2018-11-21T07:42:35.752Z,88.8
2018-11-21T07:43:44.944Z,89.2
2018-11-21T07:44:54.102Z,89.4
2018-11-21T07:46:03.306Z,88.9
2018-11-21T07:47:12.519Z,89.1
2018-11-21T07:48:21.678Z,89.3
2018-11-21T07:49:30.952Z,89.6
2018-11-21T07:50:40.072Z,89.8
2018-11-21T07:51:49.268Z,89.6
2018-11-21T07:52:58.480Z,90
2018-11-21T07:54:07.628Z,90.1
2018-11-21T07:55:16.839Z,90.5
2018-11-21T07:56:26.049Z,90.5
2018-11-21T07:57:35.205Z,90.5
2018-11-21T07:58:44.402Z,90.5
2018-11-21T07:59:54.675Z,90.5
2018-11-21T08:01:02.789Z,90.8
2018-11-21T08:02:11.975Z,91.3
2018-11-21T08:03:21.175Z,92
2018-11-21T08:04:30.344Z,91.9
2018-11-21T08:05:44.545Z,91.7
2018-11-21T08:06:48.740Z,91.9
2018-11-21T08:07:57.933Z,92.2
2018-11-21T08:09:07.119Z,92
2018-11-21T08:10:16.328Z,92.5
2018-11-21T08:11:25.526Z,92.5
2018-11-21T08:12:34.737Z,92.3
2018-11-21T08:13:43.945Z,92.1
2018-11-21T08:14:53.088Z,92.2
2018-11-21T08:16:02.279Z,92.4
2018-11-21T08:17:11.491Z,92.4
2018-11-21T08:18:20.650Z,91.9
2018-11-21T08:19:29.836Z,92.1
2018-11-21T08:20:39.024Z,91.8
2018-11-21T08:21:48.232Z,92.2
2018-11-21T08:22:57.490Z,92.1
2018-11-21T08:24:06.588Z,91.9
2018-11-21T08:25:15.794Z,92
2018-11-21T08:26:25.028Z,91.6
2018-11-21T08:27:34.180Z,92
2018-11-21T08:28:43.461Z,91.8
2018-11-21T08:29:52.544Z,91.7
2018-11-21T08:31:01.771Z,91.4
2018-11-21T08:32:10.932Z,91.2
2018-11-21T08:33:20.143Z,90.5
2018-11-21T08:34:29.357Z,91
2018-11-21T08:35:38.525Z,90.6
2018-11-21T08:36:47.701Z,90.5
2018-11-21T08:37:56.896Z,90.5
2018-11-21T08:39:06.145Z,90.6
2018-11-21T08:40:15.289Z,90.6
2018-11-21T08:41:24.499Z,90.5
2018-11-21T08:42:33.787Z,90.6
2018-11-21T08:43:43.397Z,90.5
2018-11-21T08:44:52.176Z,90.5
2018-11-21T08:46:01.254Z,90.5
2018-11-21T08:47:10.480Z,91.1
2018-11-21T08:48:19.660Z,90.7
2018-11-21T08:49:28.892Z,90.6
2018-11-21T08:50:38.080Z,90.5
2018-11-21T08:51:47.371Z,91.1
2018-11-21T08:52:56.462Z,90.5
2018-11-21T08:54:05.658Z,90.7
2018-11-21T08:55:14.856Z,90.9
2018-11-21T08:56:24.051Z,90.5
2018-11-21T08:57:33.260Z,90.5
2018-11-21T08:58:42.510Z,90.6
2018-11-21T08:59:51.624Z,90.5
2018-11-21T09:01:00.902Z,90.5
2018-11-21T09:02:10.012Z,90.6
2018-11-21T09:03:19.219Z,91
2018-11-21T09:04:28.458Z,90.8
2018-11-21T09:05:37.615Z,90.6
2018-11-21T09:06:46.804Z,90.8
2018-11-21T09:07:56.015Z,90.6
2018-11-21T09:09:05.158Z,90.6
2018-11-21T09:10:14.482Z,90.5
2018-11-21T09:11:23.568Z,90.5
2018-11-21T09:12:32.797Z,90.6
2018-11-21T09:13:41.971Z,90.6
2018-11-21T09:14:51.162Z,90.5
2018-11-21T09:16:00.341Z,90.6
2018-11-21T09:17:09.568Z,90.7
2018-11-21T09:18:18.736Z,90.5
2018-11-21T09:19:27.970Z,90.5
2018-11-21T09:20:37.148Z,90.5
2018-11-21T09:21:46.373Z,90.5
2018-11-21T09:22:55.533Z,90.5
2018-11-21T09:24:04.814Z,90.5
2018-11-21T09:25:13.932Z,90.6
2018-11-21T09:26:23.120Z,90.6
2018-11-21T09:27:32.374Z,90.6
2018-11-21T09:28:41.596Z,90.3
2018-11-21T09:29:50.714Z,90.6
2018-11-21T09:30:59.924Z,90.6
2018-11-21T09:32:09.117Z,90.6
2018-11-21T09:33:18.332Z,90.6
2018-11-21T09:34:27.529Z,90.6
2018-11-21T09:35:36.705Z,90.1
2018-11-21T09:36:45.938Z,90.6
2018-11-21T09:37:55.083Z,90.2
2018-11-21T09:39:04.302Z,90.6
2018-11-21T09:40:13.521Z,90.6
2018-11-21T09:41:22.709Z,90.3
2018-11-21T09:42:31.891Z,90.3
2018-11-21T09:43:41.137Z,90.6
2018-11-21T09:44:50.293Z,90.6
2018-11-21T09:45:59.525Z,90.3
2018-11-21T09:47:08.788Z,90.6
2018-11-21T09:48:17.915Z,90.6
2018-11-21T09:49:27.119Z,90.6
2018-11-21T09:50:36.342Z,90.6
2018-11-21T09:51:45.517Z,90.6
2018-11-21T09:52:54.713Z,90.6
2018-11-21T09:54:03.925Z,90.6
2018-11-21T09:55:13.126Z,90.6
2018-11-21T09:56:22.322Z,90.3
2018-11-21T09:57:31.536Z,90.6
2018-11-21T09:58:40.720Z,90.6
2018-11-21T09:59:49.928Z,90.6
2018-11-21T10:00:59.148Z,90.9
2018-11-21T10:02:08.376Z,90.9
2018-11-21T10:03:17.531Z,90.7
2018-11-21T10:04:26.730Z,90.9
2018-11-21T10:05:35.931Z,90.6
2018-11-21T10:06:45.119Z,90.6
2018-11-21T10:07:54.328Z,90.9
2018-11-21T10:09:03.541Z,90.9
2018-11-21T10:10:12.762Z,91.1
2018-11-21T10:11:21.919Z,91.9
2018-11-21T10:12:31.107Z,91.7
2018-11-21T10:13:40.356Z,91.7
2018-11-21T10:14:49.514Z,91.7
2018-11-21T10:16:01.277Z,91.4
2018-11-21T10:17:07.923Z,91.4
2018-11-21T10:18:17.125Z,91.8
2018-11-21T10:19:26.319Z,92.1
2018-11-21T10:20:35.515Z,92
2018-11-21T10:21:44.743Z,94.2
2018-11-21T10:22:53.912Z,92.4
2018-11-21T10:24:03.088Z,92.5
2018-11-21T10:25:12.347Z,92.1
2018-11-21T10:26:21.486Z,92.2
2018-11-21T10:27:30.734Z,92.1
2018-11-21T10:28:39.873Z,92.5
2018-11-21T10:29:49.116Z,93.1
2018-11-21T10:30:58.274Z,92.6
2018-11-21T10:32:07.470Z,93.3
2018-11-21T10:33:16.728Z,93.4
2018-11-21T10:34:25.939Z,93.6
2018-11-21T10:35:36.191Z,93.4
2018-11-21T10:36:44.251Z,93.8
2018-11-21T10:37:53.498Z,93.7
2018-11-21T10:39:02.663Z,93.4
2018-11-21T10:40:11.835Z,93.1
2018-11-21T10:41:21.159Z,93.1
2018-11-21T10:42:30.229Z,93.1
2018-11-21T10:43:39.429Z,93.1
2018-11-21T10:44:48.615Z,93.1
2018-11-21T10:45:57.829Z,92.6
2018-11-21T10:47:06.999Z,93.1
2018-11-21T10:48:16.205Z,93.1
2018-11-21T10:49:25.411Z,93.1
2018-11-21T10:50:34.581Z,93
2018-11-21T10:51:43.808Z,93
2018-11-21T10:52:52.981Z,92.8
2018-11-21T10:54:02.155Z,92.6
2018-11-21T10:55:11.370Z,92.6
2018-11-21T10:56:20.570Z,92.3
2018-11-21T10:57:29.794Z,92.5
2018-11-21T10:58:38.940Z,92.6
2018-11-21T10:59:48.216Z,92.3
2018-11-21T11:00:57.442Z,92.7
2018-11-21T11:02:06.521Z,92.8
2018-11-21T11:03:15.785Z,92.5
2018-11-21T11:04:24.931Z,92.3
2018-11-21T11:05:34.114Z,92.2
2018-11-21T11:06:43.342Z,92.8
2018-11-21T11:07:52.506Z,92.9
2018-11-21T11:09:01.708Z,92.6
2018-11-21T11:10:10.918Z,92.8
2018-11-21T11:11:20.084Z,92.5
2018-11-21T11:12:29.302Z,92.6
2018-11-21T11:13:38.494Z,92.6
2018-11-21T11:14:47.699Z,92.4
2018-11-21T11:15:56.888Z,92
2018-11-21T11:17:06.087Z,91.9
2018-11-21T11:18:15.328Z,92.2
2018-11-21T11:19:24.485Z,92.1
2018-11-21T11:20:33.767Z,92
2018-11-21T11:21:42.875Z,92.1
2018-11-21T11:22:52.071Z,92.1
2018-11-21T11:24:01.260Z,91.8
2018-11-21T11:25:10.490Z,91.8
2018-11-21T11:26:19.669Z,92.1
2018-11-21T11:27:28.949Z,91.8
2018-11-21T11:28:38.045Z,91.8
2018-11-21T11:29:47.254Z,91.9
2018-11-21T11:30:56.715Z,91.9
2018-11-21T11:32:05.662Z,91.8
2018-11-21T11:33:14.858Z,91.6
2018-11-21T11:34:24.074Z,91.3
2018-11-21T11:35:33.240Z,91.7
2018-11-21T11:36:42.524Z,91.9
2018-11-21T11:37:51.668Z,91.6
2018-11-21T11:39:00.856Z,91.6
2018-11-21T11:40:10.069Z,91.5
2018-11-21T11:41:19.274Z,91.5
2018-11-21T11:42:28.557Z,91.3
2018-11-21T11:43:37.704Z,91.5
2018-11-21T11:44:46.850Z,91.9
2018-11-21T11:45:56.208Z,91.7
2018-11-21T11:47:06.814Z,91.8
2018-11-21T11:48:14.437Z,91.4
2018-11-21T11:49:23.659Z,91.2
2018-11-21T11:50:32.875Z,91.4
2018-11-21T11:51:42.071Z,91.2
2018-11-21T11:52:51.253Z,91.7
2018-11-21T11:54:00.447Z,91.5
2018-11-21T11:55:09.661Z,90.9
2018-11-21T11:56:18.979Z,91.3
2018-11-21T11:57:28.065Z,91.4
2018-11-21T11:58:37.273Z,91.5
2018-11-21T11:59:46.459Z,91.7
2018-11-21T12:00:55.648Z,91.7
2018-11-21T12:02:04.869Z,91.4
2018-11-21T12:03:14.069Z,91.3
2018-11-21T12:04:23.268Z,91.1
2018-11-21T12:05:32.480Z,91.6
2018-11-21T12:06:41.680Z,91.3
2018-11-21T12:07:50.875Z,91.4
2018-11-21T12:09:00.920Z,91.2
2018-11-21T12:10:09.351Z,91.2
2018-11-21T12:11:18.503Z,90.7
2018-11-21T12:12:27.692Z,90.7
2018-11-21T12:13:36.913Z,91.1
2018-11-21T12:14:46.117Z,91.3
2018-11-21T12:15:55.304Z,90.9
2018-11-21T12:17:04.522Z,90.8
2018-11-21T12:18:13.729Z,90.9
2018-11-21T12:19:22.920Z,90.7
2018-11-21T12:20:32.120Z,90.7
2018-11-21T12:21:41.443Z,90.7
2018-11-21T12:22:50.538Z,90.7
2018-11-21T12:23:59.731Z,90.7
2018-11-21T12:25:08.935Z,90.7
2018-11-21T12:26:18.217Z,90.7
2018-11-21T12:29:04.209Z,90.4
2018-11-21T12:29:44.169Z,90.7
2018-11-21T12:31:11.658Z,90.3
2018-11-21T12:32:04.176Z,90.2
2018-11-21T12:33:13.362Z,90.5
2018-11-21T12:34:22.611Z,90.7
2018-11-21T12:35:31.783Z,90.7
2018-11-21T12:36:41.008Z,90.7
2018-11-21T12:38:59.396Z,90.7
2018-11-21T12:40:08.600Z,90
2018-11-21T12:41:17.834Z,90.1
2018-11-21T12:42:27.018Z,90
2018-11-21T12:43:36.238Z,90.2
2018-11-21T12:44:45.406Z,90.1
2018-11-21T12:45:54.640Z,90.2
2018-11-21T12:47:03.840Z,90.3
2018-11-21T12:48:13.053Z,90.3
2018-11-21T12:49:22.286Z,90.4
2018-11-21T12:50:31.457Z,90.3
2018-11-21T12:51:40.686Z,89.8
2018-11-21T12:52:49.876Z,90.2
2018-11-21T12:53:59.088Z,90.2
2018-11-21T12:55:08.274Z,90.1
2018-11-21T12:56:17.486Z,90.1
2018-11-21T12:57:26.700Z,90.2
2018-11-21T12:58:35.890Z,90.4
2018-11-21T12:59:45.101Z,90.1
2018-11-21T13:00:54.313Z,90.2
2018-11-21T13:02:03.487Z,90.4
2018-11-21T13:03:12.719Z,90.3
2018-11-21T13:04:21.921Z,90.4
2018-11-21T13:05:31.214Z,90.3
2018-11-21T13:06:40.380Z,90.3
2018-11-21T13:07:49.549Z,90.7
2018-11-21T13:08:58.739Z,90.7
2018-11-21T13:10:07.967Z,90.2
2018-11-21T13:11:17.144Z,90.1
2018-11-21T13:12:26.364Z,90.4
2018-11-21T13:13:35.565Z,90.7
2018-11-21T13:14:44.796Z,90.7
2018-11-21T13:15:53.992Z,90.7
2018-11-21T13:17:03.177Z,90.7
2018-11-21T13:18:12.490Z,90.7
2018-11-21T13:19:21.606Z,90.7
2018-11-21T13:20:30.776Z,90.7
2018-11-21T13:21:39.987Z,90.7
2018-11-21T13:22:49.176Z,90.7
2018-11-21T13:23:58.475Z,90.3
2018-11-21T13:25:07.596Z,90.7
2018-11-21T13:26:16.825Z,90.7
2018-11-21T13:27:25.978Z,90.7
2018-11-21T13:28:35.199Z,90.7
2018-11-21T13:29:44.411Z,90.7
2018-11-21T13:30:53.607Z,91
2018-11-21T13:32:02.873Z,91.4
2018-11-21T13:33:11.981Z,91.2
2018-11-21T13:34:21.192Z,91.4
2018-11-21T13:35:30.390Z,91.2
2018-11-21T13:36:39.628Z,91.2
2018-11-21T13:37:48.847Z,91.1
2018-11-21T13:38:57.993Z,91.2
2018-11-21T13:40:07.173Z,91.3
2018-11-21T13:41:16.396Z,91.5
2018-11-21T13:42:30.602Z,91.3
2018-11-21T13:43:34.809Z,91
2018-11-21T13:44:43.998Z,91.2
2018-11-21T13:45:53.192Z,92
2018-11-21T13:47:02.418Z,92.1
2018-11-21T13:48:11.615Z,91.8
2018-11-21T13:49:20.791Z,91.6
2018-11-21T13:50:34.361Z,91.6
2018-11-21T13:51:39.193Z,91.5
2018-11-21T13:52:48.392Z,91.8
2018-11-21T13:53:57.590Z,92.1
2018-11-21T13:55:06.799Z,92.5
2018-11-21T13:56:15.981Z,92.6
2018-11-21T13:57:25.170Z,92.8
2018-11-21T13:58:34.403Z,92.6
2018-11-21T13:59:43.623Z,92.8
2018-11-21T14:00:52.775Z,92.9
2018-11-21T14:02:02.001Z,93.2
2018-11-21T14:03:11.185Z,93.2
2018-11-21T14:04:20.397Z,93.4
2018-11-21T14:05:29.581Z,93.6
2018-11-21T14:06:38.791Z,93.9
2018-11-21T14:07:48.354Z,94.1
2018-11-21T14:08:57.523Z,94.2
2018-11-21T14:10:06.713Z,94
2018-11-21T14:11:15.947Z,93.9
2018-11-21T14:12:25.110Z,94
2018-11-21T14:13:34.338Z,93.9
2018-11-21T14:14:43.529Z,94.3
2018-11-21T14:15:52.781Z,94
2018-11-21T14:17:01.902Z,94
2018-11-21T14:18:11.138Z,93.9
2018-11-21T14:19:20.282Z,94.1
2018-11-21T14:20:29.478Z,94.2
2018-11-21T14:21:38.703Z,94.5
2018-11-21T14:22:47.876Z,94.4
2018-11-21T14:23:57.079Z,94.3
2018-11-21T14:25:06.283Z,94.2
2018-11-21T14:26:15.470Z,94.6
2018-11-21T14:27:24.744Z,94.1
2018-11-21T14:28:33.854Z,94.4
2018-11-21T14:29:43.079Z,94.6
2018-11-21T14:30:52.295Z,94.2
2018-11-21T14:32:01.443Z,94.4
2018-11-21T14:33:10.633Z,94.3
2018-11-21T14:34:19.828Z,94.5
2018-11-21T14:35:29.061Z,94.9
2018-11-21T14:36:38.232Z,94.4
2018-11-21T14:37:47.429Z,94.2
2018-11-21T14:38:56.628Z,94.6
2018-11-21T14:40:06.132Z,94.3
2018-11-21T14:41:15.034Z,94
2018-11-21T14:42:24.226Z,94.1
2018-11-21T14:43:33.442Z,94
2018-11-21T14:44:42.582Z,93.9
2018-11-21T14:45:51.812Z,93.8
2018-11-21T14:47:01.000Z,94
2018-11-21T14:48:10.323Z,93.9
2018-11-21T14:49:19.424Z,93.8
2018-11-21T14:50:28.675Z,93.7
2018-11-21T14:51:37.770Z,94
2018-11-21T14:52:46.972Z,93.7
2018-11-21T14:53:56.168Z,93.9
2018-11-21T14:55:05.364Z,94.2
2018-11-21T14:56:14.608Z,94.2
2018-11-21T14:57:23.750Z,94.1
2018-11-21T14:58:32.963Z,94
2018-11-21T14:59:42.161Z,94.1
2018-11-21T15:00:51.335Z,94.1
2018-11-21T15:02:00.543Z,94
2018-11-21T15:03:09.714Z,93.8
2018-11-21T15:04:18.904Z,94.2
2018-11-21T15:05:28.111Z,94.3
2018-11-21T15:06:37.375Z,94.1
2018-11-21T15:07:46.501Z,94
2018-11-21T15:08:55.735Z,94.3
2018-11-21T15:10:04.873Z,94.1
2018-11-21T15:11:14.084Z,94.1
2018-11-21T15:12:23.304Z,94.2
2018-11-21T15:13:32.449Z,94.2
2018-11-21T15:14:41.665Z,93.8
2018-11-21T15:15:50.892Z,94.1
2018-11-21T15:17:00.027Z,94
2018-11-21T15:18:09.304Z,93.9
2018-11-21T15:19:18.431Z,94.1
2018-11-21T15:20:27.589Z,94.2
2018-11-21T15:21:36.793Z,94.1
2018-11-21T15:22:45.981Z,94.2
2018-11-21T15:23:55.173Z,94.1
2018-11-21T15:25:04.390Z,94
2018-11-21T15:26:13.634Z,93.9
2018-11-21T15:27:22.742Z,94
2018-11-21T15:28:31.942Z,93.8
2018-11-21T15:29:41.125Z,93.3
2018-11-21T15:30:50.325Z,93.3